Flight Track Log - Related Links

Times and Time Zones

All times are in EDT time to prevent confusion due to time zone crossing. See the ASQ4209 flight status page for this flight to view local times or setup timezone preferences in your user account.

Time Position Orientation Groundspeed Altitude Reporting Facility
EDT Latitude Longitude Course Direction KTS MPH feet Rate Location/Type
03:18PM 29.9617 -95.3436 90° East 169 194 700  Level Houston Center
03:19PM 29.9331 -95.3061 131° Southeast 200 230 2,200 1,787 Climbing Houston Center
03:20PM 29.9019 -95.2656 132° Southeast 237 273 3,500 1,907 Climbing Houston Center
03:21PM 29.8539 -95.2008 131° Southeast 259 298 5,600 2,244 Climbing Houston Center
03:22PM 29.8211 -95.1233 116° Southeast 274 315 8,100 2,537 Climbing Houston Center
03:23PM 29.8108 -95.0358 98° East 276 318 10,800 2,081 Climbing Houston Center
03:24PM 29.9834 -94.7343 90° East  Level FlightAware Approximate
03:24PM 29.8194 -94.9436 84° East 285 328 12,400  Level Houston Center
03:25PM 29.8492 -94.8331 73° East 313 360 15,100 1,742 Climbing Houston Center
03:26PM 29.8728 -94.7369 74° East 322 371 16,000 390 Climbing Houston Center
03:27PM 29.8644 -94.6350 95° East 322 371 15,900  Descending Houston Center
03:28PM 29.8906 -94.5414 72° East 319 367 16,000 97 Climbing Houston Center
03:29PM 29.9344 -94.4428 63° Northeast 322 371 16,100 484 Climbing Houston Center
03:30PM 29.9550 -94.3319 78° East 354 407 17,000 927 Climbing Houston Center
03:31PM 29.9731 -94.2142 80° East 370 426 18,000 976 Climbing Houston Center
03:32PM 29.9917 -94.0936 80° East 379 436 19,000 919 Climbing Houston Center
03:33PM 30.0111 -93.9728 79° East 384 442 19,900 919 Climbing Houston Center
03:34PM 30.0292 -93.8478 80° East 394 453 20,900 537 Climbing Houston Center
03:35PM 30.0536 -93.6889 80° East 412 474 21,000 49 Climbing Houston Center
03:36PM 30.0736 -93.5561 80° East 432 497 21,000  Level Houston Center
03:37PM 30.0939 -93.4200 80° East 437 503 21,000  Level Houston Center
03:38PM 30.1133 -93.2842 81° East 436 502 21,000  Level Houston Center
03:39PM 30.1342 -93.1481 80° East 435 501 21,000 -48 Level Houston Center
03:40PM 30.1628 -92.9858 78° East 435 501 20,900  Descending Houston Center
03:41PM 30.1947 -92.8522 75° East 434 499 21,000 49 Climbing Houston Center
03:42PM 30.2228 -92.7167 76° East 436 502 21,000  Level Houston Center
03:43PM 30.2497 -92.5817 77° East 434 499 21,000  Level Houston Center
03:44PM 30.2783 -92.4450 76° East 437 503 21,000 -49 Level Houston Center
03:45PM 30.3058 -92.3008 78° East 433 498 20,900 -1,366 Descending Houston Center
03:46PM 30.3325 -92.1719 76° East 420 483 18,200 -2,758 Descending Houston Center
03:48PM 30.3569 -92.0497 77° East 400 460 15,200 -3,097 Descending Houston Center
03:49PM 30.3856 -91.9075 77° East 384 442 11,800 -2,049 Descending Houston Center
03:50PM 30.4083 -91.7950 77° East 368 423 11,000 -390 Descending Houston Center
03:51PM 30.4281 -91.6889 78° East 362 417 11,000 -145 Level Houston Center
03:52PM 30.4506 -91.5803 76° East 351 404 10,700 -1,317 Descending Houston Center
03:53PM 30.4564 -91.4944 85° East 281 323 8,300 -2,829 Descending Houston Center
03:54PM 30.4669 -91.3911 83° East 270 311 4,900 -3,290 Descending Houston Center

Login

Don't have an account? Register now (free) for customized features, flight alerts, and more!